x

Juan Santamaria (78762) Weather Station

10:00 - Sat 13th Feb 2016 All times are CST. -6 hours from GMT.

  • Wind
    18mph, 35mph gusts
  • Aire Temp 81°f
  • Sea Pressure 1017.3mb
  • Juan Santamaria
  • Juan Santamaria

More Historic Weather Station data

Upgrade to MSW Pro to gain access to the past 30 days of data for over 8000 Wavebouys and Weather Stations around the globe.

Join Pro

Comparision Forecast

View Surf forecast
   
sáb 02/13 10:00 18 35 mph 1017.3mb 81f
9:00 20 33 mph 1017.6mb 77f
8:00  -  mph 1017.3mb 73f
7:00 18 33 mph 1017.3mb 70f
6:00 16
mph
1016.6mb 68f
5:00 17 30 mph 1015.6mb 68f
4:00 15 30 mph 1015.2mb 68f
3:00 15
mph
1014.9mb 68f
2:00 20 31 mph 1014.6mb 68f
1:00 18 35 mph 1015.2mb 70f
12:00 16 28 mph 1016.3mb 70f
vie 02/12 11:00 17 30 mph 1016.3mb 68f
10:00 14 28 mph 1016.6mb 68f
9:00 17 31 mph 1016.6mb 72f
8:00 16 29 mph 1016.3mb 70f
7:00 17 30 mph 1015.2mb 72f
6:00 17 30 mph 1014.6mb 72f
5:00 16 30 mph 1013.9mb 77f
4:00 14 29 mph 1013.9mb 77f
3:00 17 29 mph 1013.9mb 79f
2:00 16 35 mph 1014.2mb 81f
1:00 20 37 mph 1015.2mb 82f
12:00 20 32 mph 1015.9mb 84f
11:00 18 31 mph 1016.9mb 82f
10:00 20 33 mph 1017.6mb 82f
9:00 20 35 mph 1017.6mb 81f
8:00 17 32 mph 1017.3mb 75f
7:00 13 24 mph 1016.9mb 72f
6:00 14 27 mph 1016.3mb 70f
5:00 14 25 mph 1016.3mb 70f
4:00 14 25 mph 1015.6mb 70f
3:00 15 27 mph 1015.2mb 70f
2:00 18 32 mph 1015.2mb 70f
1:00 17 31 mph 1015.9mb 70f
12:00 20 33 mph 1016.6mb 70f
jue 02/11 11:00 18 30 mph 1017.3mb 70f
10:00 18 31 mph 1017.3mb 70f
9:00 17 30 mph 1017.6mb 72f
8:00 16 28 mph 1016.9mb 72f
7:00 17 31 mph 1016.3mb 73f
6:00 18 38 mph 1015.6mb 72f
5:00 20 35 mph 1014.9mb 75f
4:00 22 40 mph 1015.2mb 79f
3:00  -  mph 1014.6mb 81f
2:00 22 37 mph 1013.9mb 81f
1:00 25 39 mph 1014.9mb 81f
12:00 23 41 mph 1015.9mb 79f
11:00 18 31 mph 1016.3mb 81f
10:00 21 36 mph 1017.6mb 79f
9:00 21 32 mph 1017.3mb 75f
8:00 21 32 mph 1017.3mb 73f
7:00 18 32 mph 1016.6mb 70f
6:00 21 35 mph 1016.3mb 68f
5:00 13 25 mph 1016.6mb 68f
4:00 17 30 mph 1015.6mb 68f
3:00 16 28 mph 1015.6mb 68f
2:00 14 25 mph 1015.9mb 70f
1:00 8
mph
1016.6mb 70f
12:00 17 33 mph 1017.3mb 70f
mié 02/10 11:00 16 29 mph 1018mb 70f
10:00 16 31 mph 1018.6mb 70f
9:00 12
mph
1018.6mb 70f
8:00 18 31 mph 1018mb 70f
7:00 16 28 mph 1017.6mb 70f
6:00 21 33 mph 1016.9mb 70f
5:00 18 30 mph 1016.6mb 72f
4:00 16 28 mph 1016.3mb 77f
3:00 20 35 mph 1016.3mb 79f
2:00 20 31 mph 1015.9mb 79f
1:00 21 32 mph 1016.6mb 77f
12:00 22 36 mph 1017.6mb 77f
11:00 21 35 mph 1017.6mb 75f
10:00 21 37 mph 1018.6mb 73f
9:00 20 33 mph 1018.6mb 73f
8:00 17 31 mph 1018.3mb 72f
7:00 20 32 mph 1017.6mb 70f
6:00 15 33 mph 1016.9mb 68f
5:00 14 30 mph 1016.6mb 68f
4:00 13 30 mph 1015.9mb 68f
3:00 16 28 mph 1015.9mb 68f
2:00 16 29 mph 1015.6mb 68f
1:00 17 27 mph 1016.3mb 68f
12:00 17 36 mph 1016.9mb 68f
mar 02/09 11:00 16 32 mph 1017.3mb 68f
10:00 17 33 mph 1017.6mb 70f
9:00 6
mph
1017.6mb 73f
8:00 12 23 mph 1017.3mb 72f
7:00 12 23 mph 1015.9mb 72f
6:00 15 27 mph 1015.2mb 72f
5:00 18 30 mph 1014.6mb 75f